Anzahl Datensätze: 144
min. Temperatur: 5.1 °C
max. Temperatur: 8.4 °C
max. Windgeschwindigkeit: 28.8 km/h
Niederschlagsumme: 3.2 mm
| Datum |
Zeit |
Temp °C |
Feuchte % |
Taupunkt °C |
Luftdruck hPa |
Wind km/h |
Windrichtung |
Strahlung w/m² |
Niederschlag mm |
|---|---|---|---|---|---|---|---|---|---|
| 13.01.2026 | 00:00 | 6.9 | 96 | 6.3 | 1013.5 | 0.0 | S | 0 | 3.2 |
| 13.01.2026 | 00:10 | 6.9 | 96 | 6.3 | 1013.7 | 1.4 | WSW | 0 | 0.0 |
| 13.01.2026 | 00:20 | 6.9 | 96 | 6.3 | 1013.8 | 3.2 | SSW | 0 | 0.2 |
| 13.01.2026 | 00:30 | 6.9 | 96 | 6.3 | 1014.0 | 4.7 | SSW | 0 | 0.2 |
| 13.01.2026 | 00:40 | 6.9 | 96 | 6.3 | 1013.7 | 4.7 | SSW | 0 | 0.2 |
| 13.01.2026 | 00:50 | 6.9 | 96 | 6.3 | 1013.7 | 1.4 | SW | 0 | 0.2 |
| 13.01.2026 | 01:00 | 6.9 | 97 | 6.5 | 1013.8 | 1.4 | SSW | 0 | 0.4 |
| 13.01.2026 | 01:10 | 6.8 | 97 | 6.4 | 1013.6 | 0.0 | SSO | 0 | 0.4 |
| 13.01.2026 | 01:20 | 6.8 | 97 | 6.4 | 1013.6 | 0.0 | SSW | 0 | 0.4 |
| 13.01.2026 | 01:30 | 6.8 | 97 | 6.4 | 1013.6 | 0.0 | SSW | 0 | 0.4 |
| 13.01.2026 | 01:40 | 6.7 | 97 | 6.3 | 1013.4 | 0.0 | SSW | 0 | 0.4 |
| 13.01.2026 | 01:50 | 6.7 | 97 | 6.3 | 1013.5 | 1.4 | WSW | 0 | 0.4 |
| 13.01.2026 | 02:00 | 6.7 | 96 | 6.1 | 1013.5 | 0.0 | S | 0 | 0.4 |
| 13.01.2026 | 02:10 | 6.7 | 96 | 6.1 | 1013.6 | 0.0 | S | 0 | 0.4 |
| 13.01.2026 | 02:20 | 6.7 | 96 | 6.1 | 1013.7 | 0.0 | SSW | 0 | 0.4 |
| 13.01.2026 | 02:30 | 6.7 | 96 | 6.1 | 1013.6 | 1.4 | SSW | 0 | 0.4 |
| 13.01.2026 | 02:40 | 6.7 | 96 | 6.1 | 1013.6 | 0.0 | SW | 0 | 0.4 |
| 13.01.2026 | 02:50 | 6.8 | 96 | 6.2 | 1013.6 | 3.2 | S | 0 | 0.4 |
| 13.01.2026 | 03:00 | 6.8 | 96 | 6.2 | 1013.9 | 1.4 | SSW | 0 | 0.4 |
| 13.01.2026 | 03:10 | 6.8 | 96 | 6.2 | 1013.7 | 1.4 | S | 0 | 0.4 |
| 13.01.2026 | 03:20 | 6.8 | 96 | 6.2 | 1013.7 | 1.4 | SW | 0 | 0.4 |
| 13.01.2026 | 03:30 | 6.8 | 96 | 6.2 | 1013.7 | 1.4 | WSW | 0 | 0.4 |
| 13.01.2026 | 03:40 | 6.8 | 96 | 6.2 | 1013.5 | 1.4 | S | 0 | 0.4 |
| 13.01.2026 | 03:50 | 6.7 | 96 | 6.1 | 1013.5 | 1.4 | SSW | 0 | 0.4 |
| 13.01.2026 | 04:00 | 6.7 | 96 | 6.1 | 1013.6 | 3.2 | SO | 0 | 0.4 |
| 13.01.2026 | 04:10 | 6.6 | 96 | 6.0 | 1013.6 | 1.4 | S | 0 | 0.4 |
| 13.01.2026 | 04:20 | 6.7 | 96 | 6.1 | 1013.6 | 1.4 | SW | 0 | 0.4 |
| 13.01.2026 | 04:30 | 6.6 | 96 | 6.0 | 1013.8 | 1.4 | SSW | 0 | 0.4 |
| 13.01.2026 | 04:40 | 6.7 | 96 | 6.1 | 1013.6 | 1.4 | S | 0 | 0.6 |
| 13.01.2026 | 04:50 | 6.7 | 96 | 6.1 | 1013.6 | 1.4 | SW | 0 | 0.6 |
| 13.01.2026 | 05:00 | 6.7 | 96 | 6.1 | 1013.5 | 1.4 | S | 0 | 0.6 |
| 13.01.2026 | 05:10 | 6.7 | 96 | 6.1 | 1013.5 | 1.4 | S | 0 | 0.6 |
| 13.01.2026 | 05:20 | 6.6 | 96 | 6.0 | 1013.6 | 0.0 | SSW | 0 | 0.8 |
| 13.01.2026 | 05:30 | 6.7 | 96 | 6.1 | 1013.6 | 1.4 | SO | 0 | 0.8 |
| 13.01.2026 | 05:40 | 6.7 | 96 | 6.1 | 1013.7 | 1.4 | SO | 0 | 0.8 |
| 13.01.2026 | 05:50 | 6.7 | 96 | 6.1 | 1013.7 | 1.4 | SSW | 0 | 0.8 |
| 13.01.2026 | 06:00 | 6.7 | 96 | 6.1 | 1013.6 | 1.4 | SSO | 0 | 0.8 |
| 13.01.2026 | 06:10 | 6.7 | 96 | 6.1 | 1013.6 | 0.0 | SSW | 0 | 0.8 |
| 13.01.2026 | 06:20 | 6.6 | 97 | 6.2 | 1013.6 | 0.0 | S | 0 | 0.8 |
| 13.01.2026 | 06:30 | 6.7 | 97 | 6.3 | 1013.6 | 0.0 | SSO | 0 | 0.8 |
| 13.01.2026 | 06:40 | 6.6 | 97 | 6.2 | 1013.7 | 0.0 | SSO | 0 | 0.8 |
| 13.01.2026 | 06:50 | 6.6 | 96 | 6.0 | 1013.5 | 0.0 | SO | 0 | 1.0 |
| 13.01.2026 | 07:00 | 6.4 | 97 | 6.0 | 1013.5 | 0.0 | SO | 0 | 1.0 |
| 13.01.2026 | 07:10 | 6.3 | 97 | 5.9 | 1013.5 | 1.4 | OSO | 0 | 1.0 |
| 13.01.2026 | 07:20 | 6.2 | 96 | 5.6 | 1013.5 | 0.0 | SSO | 0 | 1.0 |
| 13.01.2026 | 07:30 | 6.2 | 96 | 5.6 | 1013.8 | 0.0 | SSO | 0 | 1.0 |
| 13.01.2026 | 07:40 | 6.1 | 96 | 5.5 | 1013.9 | 0.0 | SO | 0 | 1.0 |
| 13.01.2026 | 07:50 | 6.1 | 96 | 5.5 | 1014.0 | 0.0 | SSO | 0 | 1.0 |
| 13.01.2026 | 08:00 | 5.9 | 96 | 5.3 | 1014.0 | 0.0 | OSO | 0 | 1.0 |
| 13.01.2026 | 08:10 | 5.8 | 96 | 5.2 | 1013.9 | 1.4 | SO | 0 | 1.0 |
| 13.01.2026 | 08:20 | 5.8 | 96 | 5.2 | 1013.7 | 1.4 | SSO | 0 | 1.0 |
| 13.01.2026 | 08:30 | 5.6 | 96 | 5.0 | 1014.0 | 0.0 | SSO | 0 | 1.0 |
| 13.01.2026 | 08:40 | 5.4 | 96 | 4.8 | 1014.0 | 0.0 | SO | 0 | 1.0 |
| 13.01.2026 | 08:50 | 5.4 | 96 | 4.8 | 1014.2 | 0.0 | SO | 0 | 1.0 |
| 13.01.2026 | 09:00 | 5.3 | 96 | 4.7 | 1014.1 | 0.0 | SO | 7 | 1.0 |
| 13.01.2026 | 09:10 | 5.2 | 96 | 4.6 | 1014.2 | 0.0 | SSO | 5 | 1.0 |
| 13.01.2026 | 09:20 | 5.2 | 96 | 4.6 | 1014.3 | 1.4 | SO | 7 | 1.0 |
| 13.01.2026 | 09:30 | 5.1 | 96 | 4.5 | 1014.3 | 1.4 | SSO | 14 | 1.0 |
| 13.01.2026 | 09:40 | 5.1 | 96 | 4.5 | 1014.4 | 4.7 | SO | 26 | 1.0 |
| 13.01.2026 | 09:50 | 5.2 | 96 | 4.6 | 1014.3 | 3.2 | SO | 40 | 1.0 |
| 13.01.2026 | 10:00 | 5.3 | 95 | 4.6 | 1014.2 | 1.4 | S | 81 | 1.0 |
| 13.01.2026 | 10:10 | 5.4 | 95 | 4.7 | 1014.2 | 4.7 | SSO | 76 | 1.0 |
| 13.01.2026 | 10:20 | 5.5 | 95 | 4.8 | 1014.3 | 6.5 | SSO | 91 | 1.0 |
| 13.01.2026 | 10:30 | 5.7 | 95 | 5.0 | 1014.3 | 3.2 | SO | 83 | 1.0 |
| 13.01.2026 | 10:40 | 5.7 | 94 | 4.8 | 1014.3 | 4.7 | OSO | 70 | 1.0 |
| 13.01.2026 | 10:50 | 5.8 | 94 | 4.9 | 1014.3 | 4.7 | SSO | 63 | 1.0 |
| 13.01.2026 | 11:00 | 5.8 | 94 | 4.9 | 1014.5 | 4.7 | S | 62 | 1.0 |
| 13.01.2026 | 11:10 | 5.8 | 94 | 4.9 | 1014.6 | 1.4 | SO | 63 | 1.0 |
| 13.01.2026 | 11:20 | 5.9 | 94 | 5.0 | 1014.5 | 3.2 | SSO | 69 | 1.0 |
| 13.01.2026 | 11:30 | 5.9 | 93 | 4.9 | 1014.2 | 3.2 | SSO | 65 | 1.0 |
| 13.01.2026 | 11:40 | 5.9 | 93 | 4.9 | 1014.1 | 1.4 | SO | 70 | 1.0 |
| 13.01.2026 | 11:50 | 6.0 | 94 | 5.1 | 1014.0 | 3.2 | SSO | 81 | 1.0 |
| 13.01.2026 | 12:00 | 6.1 | 94 | 5.2 | 1014.0 | 1.4 | SO | 104 | 1.0 |
| 13.01.2026 | 12:10 | 6.2 | 93 | 5.2 | 1014.0 | 1.4 | SO | 102 | 1.0 |
| 13.01.2026 | 12:20 | 6.3 | 93 | 5.3 | 1013.7 | 0.0 | SSO | 104 | 1.0 |
| 13.01.2026 | 12:30 | 6.4 | 93 | 5.4 | 1013.5 | 3.2 | SO | 111 | 1.0 |
| 13.01.2026 | 12:40 | 6.5 | 93 | 5.4 | 1013.4 | 1.4 | OSO | 118 | 1.0 |
| 13.01.2026 | 12:50 | 6.7 | 93 | 5.6 | 1013.3 | 3.2 | SO | 149 | 1.0 |
| 13.01.2026 | 13:00 | 6.8 | 92 | 5.6 | 1013.0 | 4.7 | SSO | 128 | 1.0 |
| 13.01.2026 | 13:10 | 6.8 | 92 | 5.6 | 1012.9 | 4.7 | SO | 102 | 1.0 |
| 13.01.2026 | 13:20 | 6.9 | 92 | 5.7 | 1012.8 | 4.7 | S | 90 | 1.0 |
| 13.01.2026 | 13:30 | 6.8 | 92 | 5.6 | 1012.8 | 6.5 | S | 93 | 1.0 |
| 13.01.2026 | 13:40 | 6.9 | 92 | 5.7 | 1012.6 | 6.5 | SO | 111 | 1.0 |
| 13.01.2026 | 13:50 | 7.2 | 92 | 6.0 | 1012.4 | 6.5 | SO | 223 | 1.0 |
| 13.01.2026 | 14:00 | 7.6 | 92 | 6.4 | 1012.1 | 4.7 | SSO | 202 | 1.0 |
| 13.01.2026 | 14:10 | 7.8 | 90 | 6.3 | 1012.1 | 4.7 | SSO | 149 | 1.0 |
| 13.01.2026 | 14:20 | 7.7 | 90 | 6.2 | 1012.0 | 6.5 | SSO | 97 | 1.0 |
| 13.01.2026 | 14:30 | 7.7 | 90 | 6.2 | 1012.0 | 9.7 | SSO | 114 | 1.0 |
| 13.01.2026 | 14:40 | 7.7 | 90 | 6.2 | 1011.7 | 7.9 | SSO | 102 | 1.0 |
| 13.01.2026 | 14:50 | 7.8 | 91 | 6.4 | 1011.7 | 4.7 | SO | 111 | 1.0 |
| 13.01.2026 | 15:00 | 7.8 | 90 | 6.3 | 1011.6 | 7.9 | SSO | 95 | 1.0 |
| 13.01.2026 | 15:10 | 8.0 | 90 | 6.5 | 1011.7 | 4.7 | SSO | 113 | 1.0 |
| 13.01.2026 | 15:20 | 8.2 | 90 | 6.7 | 1011.8 | 6.5 | SSO | 79 | 1.0 |
| 13.01.2026 | 15:30 | 8.2 | 90 | 6.7 | 1011.7 | 4.7 | SSO | 69 | 1.0 |
| 13.01.2026 | 15:40 | 8.2 | 90 | 6.7 | 1011.6 | 4.7 | SSO | 72 | 1.0 |
| 13.01.2026 | 15:50 | 8.3 | 90 | 6.8 | 1011.6 | 1.4 | SSO | 67 | 1.0 |
| 13.01.2026 | 16:00 | 8.4 | 90 | 6.9 | 1011.6 | 1.4 | SO | 63 | 1.0 |
| 13.01.2026 | 16:10 | 8.3 | 90 | 6.8 | 1011.5 | 3.2 | SO | 39 | 1.0 |
| 13.01.2026 | 16:20 | 8.2 | 90 | 6.7 | 1011.5 | 1.4 | SSW | 25 | 1.0 |
| 13.01.2026 | 16:30 | 8.0 | 91 | 6.6 | 1011.5 | 1.4 | SSO | 16 | 1.0 |
| 13.01.2026 | 16:40 | 7.8 | 91 | 6.4 | 1011.5 | 0.0 | SO | 9 | 1.0 |
| 13.01.2026 | 16:50 | 7.6 | 92 | 6.4 | 1011.7 | 0.0 | SSO | 0 | 1.0 |
| 13.01.2026 | 17:00 | 7.2 | 93 | 6.1 | 1011.5 | 0.0 | SSO | 0 | 1.0 |
| 13.01.2026 | 17:10 | 7.2 | 93 | 6.1 | 1011.7 | 0.0 | SSO | 0 | 1.0 |
| 13.01.2026 | 17:20 | 7.3 | 93 | 6.2 | 1011.9 | 0.0 | SSO | 0 | 1.0 |
| 13.01.2026 | 17:30 | 7.4 | 93 | 6.3 | 1011.9 | 0.0 | SSO | 0 | 1.0 |
| 13.01.2026 | 17:40 | 7.2 | 93 | 6.1 | 1011.9 | 0.0 | SO | 0 | 1.0 |
| 13.01.2026 | 17:50 | 7.1 | 93 | 6.0 | 1011.8 | 0.0 | S | 0 | 1.0 |
| 13.01.2026 | 18:00 | 7.2 | 93 | 6.1 | 1011.8 | 0.0 | SSO | 0 | 1.0 |
| 13.01.2026 | 18:10 | 7.2 | 93 | 6.1 | 1011.9 | 0.0 | SSO | 0 | 1.0 |
| 13.01.2026 | 18:20 | 7.0 | 93 | 5.9 | 1011.9 | 0.0 | SSO | 0 | 1.0 |
| 13.01.2026 | 18:30 | 6.8 | 94 | 5.9 | 1011.9 | 0.0 | S | 0 | 1.0 |
| 13.01.2026 | 18:40 | 6.4 | 94 | 5.5 | 1011.8 | 0.0 | SSO | 0 | 1.0 |
| 13.01.2026 | 18:50 | 6.6 | 95 | 5.9 | 1011.8 | 1.4 | SSO | 0 | 1.0 |
| 13.01.2026 | 19:00 | 6.8 | 95 | 6.1 | 1011.5 | 1.4 | SSO | 0 | 1.0 |
| 13.01.2026 | 19:10 | 6.5 | 94 | 5.6 | 1011.7 | 1.4 | SSO | 0 | 1.0 |
| 13.01.2026 | 19:20 | 6.8 | 94 | 5.9 | 1011.8 | 3.2 | SSO | 0 | 1.0 |
| 13.01.2026 | 19:30 | 7.0 | 95 | 6.3 | 1011.8 | 0.0 | SSO | 0 | 1.0 |
| 13.01.2026 | 19:40 | 7.2 | 94 | 6.3 | 1011.9 | 0.0 | SSO | 0 | 1.0 |
| 13.01.2026 | 19:50 | 7.4 | 93 | 6.3 | 1011.7 | 1.4 | SSO | 0 | 1.0 |
| 13.01.2026 | 20:00 | 7.7 | 92 | 6.5 | 1011.6 | 1.4 | SSO | 0 | 1.0 |
| 13.01.2026 | 20:10 | 7.7 | 92 | 6.5 | 1011.7 | 0.0 | SO | 0 | 1.0 |
| 13.01.2026 | 20:20 | 7.7 | 91 | 6.3 | 1011.9 | 0.0 | SSO | 0 | 1.0 |
| 13.01.2026 | 20:30 | 7.7 | 91 | 6.3 | 1012.1 | 0.0 | S | 0 | 1.0 |
| 13.01.2026 | 20:40 | 7.8 | 92 | 6.6 | 1012.1 | 0.0 | S | 0 | 1.0 |
| 13.01.2026 | 20:50 | 8.1 | 90 | 6.6 | 1012.0 | 1.4 | S | 0 | 1.0 |
| 13.01.2026 | 21:00 | 8.3 | 90 | 6.8 | 1012.0 | 1.4 | SSW | 0 | 1.0 |
| 13.01.2026 | 21:10 | 8.3 | 90 | 6.8 | 1012.0 | 1.4 | SSO | 0 | 1.0 |
| 13.01.2026 | 21:20 | 8.2 | 89 | 6.5 | 1012.1 | 1.4 | S | 0 | 1.0 |
| 13.01.2026 | 21:30 | 7.9 | 90 | 6.4 | 1012.2 | 0.0 | SSW | 0 | 1.0 |
| 13.01.2026 | 21:40 | 8.1 | 90 | 6.6 | 1012.1 | 0.0 | SSO | 0 | 1.0 |
| 13.01.2026 | 21:50 | 8.1 | 90 | 6.6 | 1012.2 | 0.0 | S | 0 | 1.0 |
| 13.01.2026 | 22:00 | 8.2 | 90 | 6.7 | 1012.3 | 0.0 | SSO | 0 | 1.0 |
| 13.01.2026 | 22:10 | 8.3 | 90 | 6.8 | 1012.2 | 1.4 | S | 0 | 1.0 |
| 13.01.2026 | 22:20 | 8.4 | 89 | 6.7 | 1012.2 | 1.4 | S | 0 | 1.0 |
| 13.01.2026 | 22:30 | 8.3 | 89 | 6.6 | 1012.4 | 1.4 | SO | 0 | 1.0 |
| 13.01.2026 | 22:40 | 8.2 | 90 | 6.7 | 1012.3 | 1.4 | S | 0 | 1.0 |
| 13.01.2026 | 22:50 | 8.2 | 90 | 6.7 | 1012.4 | 0.0 | S | 0 | 1.0 |
| 13.01.2026 | 23:00 | 8.1 | 90 | 6.6 | 1012.5 | 0.0 | S | 0 | 1.0 |
| 13.01.2026 | 23:10 | 8.1 | 90 | 6.6 | 1012.4 | 0.0 | SSO | 0 | 1.0 |
| 13.01.2026 | 23:20 | 8.0 | 90 | 6.5 | 1012.5 | 0.0 | S | 0 | 1.0 |
| 13.01.2026 | 23:30 | 7.9 | 91 | 6.5 | 1012.7 | 0.0 | SSO | 0 | 1.0 |
| 13.01.2026 | 23:40 | 7.8 | 91 | 6.4 | 1012.9 | 0.0 | S | 0 | 1.0 |
| 13.01.2026 | 23:50 | 7.9 | 91 | 6.5 | 1013.0 | 0.0 | SSO | 0 | 1.0 |